sensor_id;sensor_type;location;lat;lon;timestamp;P1;durP1;ratioP1;P2;durP2;ratioP2
80746;SDS011;76868;50.218;14.322;2024-03-25T00:02:06;16.98;;;7.60;;
80746;SDS011;76868;50.218;14.322;2024-03-25T00:04:31;27.27;;;12.02;;
80746;SDS011;76868;50.218;14.322;2024-03-25T00:06:56;53.33;;;18.25;;
80746;SDS011;76868;50.218;14.322;2024-03-25T00:09:23;29.67;;;14.45;;
80746;SDS011;76868;50.218;14.322;2024-03-25T00:11:49;10.15;;;4.03;;
80746;SDS011;76868;50.218;14.322;2024-03-25T00:14:19;10.32;;;5.38;;
80746;SDS011;76868;50.218;14.322;2024-03-25T00:16:45;4.55;;;2.83;;
80746;SDS011;76868;50.218;14.322;2024-03-25T00:19:10;6.97;;;4.05;;
80746;SDS011;76868;50.218;14.322;2024-03-25T00:21:35;5.28;;;2.92;;
80746;SDS011;76868;50.218;14.322;2024-03-25T00:24:01;8.02;;;4.40;;
80746;SDS011;76868;50.218;14.322;2024-03-25T00:26:26;48.05;;;22.38;;
80746;SDS011;76868;50.218;14.322;2024-03-25T00:28:51;28.33;;;15.27;;
80746;SDS011;76868;50.218;14.322;2024-03-25T00:31:17;24.05;;;14.20;;
80746;SDS011;76868;50.218;14.322;2024-03-25T00:33:42;50.42;;;24.60;;
80746;SDS011;76868;50.218;14.322;2024-03-25T00:36:07;118.25;;;57.65;;
80746;SDS011;76868;50.218;14.322;2024-03-25T00:38:33;57.13;;;24.73;;
80746;SDS011;76868;50.218;14.322;2024-03-25T00:40:58;76.07;;;35.33;;
80746;SDS011;76868;50.218;14.322;2024-03-25T00:43:24;27.17;;;11.35;;
80746;SDS011;76868;50.218;14.322;2024-03-25T00:45:49;44.13;;;14.50;;
80746;SDS011;76868;50.218;14.322;2024-03-25T00:48:14;28.63;;;12.32;;
80746;SDS011;76868;50.218;14.322;2024-03-25T00:50:40;22.17;;;9.38;;
80746;SDS011;76868;50.218;14.322;2024-03-25T00:53:05;26.45;;;11.45;;
80746;SDS011;76868;50.218;14.322;2024-03-25T00:55:32;17.17;;;8.32;;
80746;SDS011;76868;50.218;14.322;2024-03-25T00:57:58;11.75;;;5.65;;
80746;SDS011;76868;50.218;14.322;2024-03-25T01:00:23;16.38;;;6.80;;
80746;SDS011;76868;50.218;14.322;2024-03-25T01:02:49;18.05;;;8.15;;
80746;SDS011;76868;50.218;14.322;2024-03-25T01:05:14;8.15;;;4.07;;
80746;SDS011;76868;50.218;14.322;2024-03-25T01:07:39;17.25;;;6.30;;
80746;SDS011;76868;50.218;14.322;2024-03-25T01:10:05;8.20;;;4.22;;
80746;SDS011;76868;50.218;14.322;2024-03-25T01:12:31;11.38;;;5.78;;
80746;SDS011;76868;50.218;14.322;2024-03-25T01:14:57;20.67;;;8.50;;
80746;SDS011;76868;50.218;14.322;2024-03-25T01:17:23;17.08;;;7.68;;
80746;SDS011;76868;50.218;14.322;2024-03-25T01:19:48;15.68;;;6.28;;
80746;SDS011;76868;50.218;14.322;2024-03-25T01:22:14;30.45;;;11.43;;
80746;SDS011;76868;50.218;14.322;2024-03-25T01:24:39;14.23;;;6.30;;
80746;SDS011;76868;50.218;14.322;2024-03-25T01:27:05;9.23;;;4.80;;
80746;SDS011;76868;50.218;14.322;2024-03-25T01:29:30;21.63;;;8.77;;
80746;SDS011;76868;50.218;14.322;2024-03-25T01:31:56;12.63;;;5.50;;
80746;SDS011;76868;50.218;14.322;2024-03-25T01:34:23;13.65;;;5.40;;
80746;SDS011;76868;50.218;14.322;2024-03-25T01:36:49;7.97;;;4.55;;
80746;SDS011;76868;50.218;14.322;2024-03-25T01:39:14;11.77;;;4.57;;
80746;SDS011;76868;50.218;14.322;2024-03-25T01:41:39;11.18;;;5.03;;
80746;SDS011;76868;50.218;14.322;2024-03-25T01:44:04;13.35;;;5.25;;
80746;SDS011;76868;50.218;14.322;2024-03-25T01:46:30;8.70;;;4.10;;
80746;SDS011;76868;50.218;14.322;2024-03-25T01:48:55;9.77;;;4.90;;
80746;SDS011;76868;50.218;14.322;2024-03-25T01:51:23;12.63;;;5.10;;
80746;SDS011;76868;50.218;14.322;2024-03-25T01:53:49;16.30;;;6.05;;
80746;SDS011;76868;50.218;14.322;2024-03-25T01:56:17;32.67;;;12.40;;
80746;SDS011;76868;50.218;14.322;2024-03-25T01:58:44;33.65;;;13.98;;
80746;SDS011;76868;50.218;14.322;2024-03-25T02:01:10;14.02;;;5.90;;
80746;SDS011;76868;50.218;14.322;2024-03-25T02:03:39;27.58;;;9.50;;
80746;SDS011;76868;50.218;14.322;2024-03-25T02:06:06;22.95;;;8.70;;
80746;SDS011;76868;50.218;14.322;2024-03-25T02:08:34;52.88;;;19.17;;
80746;SDS011;76868;50.218;14.322;2024-03-25T02:11:00;32.38;;;11.75;;
80746;SDS011;76868;50.218;14.322;2024-03-25T02:15:52;27.70;;;9.95;;
80746;SDS011;76868;50.218;14.322;2024-03-25T02:18:19;23.10;;;8.65;;
80746;SDS011;76868;50.218;14.322;2024-03-25T02:20:45;12.30;;;5.00;;
80746;SDS011;76868;50.218;14.322;2024-03-25T02:23:11;17.00;;;6.55;;
80746;SDS011;76868;50.218;14.322;2024-03-25T02:25:37;18.95;;;7.75;;
80746;SDS011;76868;50.218;14.322;2024-03-25T02:28:04;6.53;;;2.30;;
80746;SDS011;76868;50.218;14.322;2024-03-25T02:30:29;7.28;;;2.83;;
80746;SDS011;76868;50.218;14.322;2024-03-25T02:32:55;23.55;;;9.07;;
80746;SDS011;76868;50.218;14.322;2024-03-25T02:35:20;7.32;;;2.97;;
80746;SDS011;76868;50.218;14.322;2024-03-25T02:37:47;16.67;;;5.53;;
80746;SDS011;76868;50.218;14.322;2024-03-25T02:40:15;10.23;;;4.00;;
80746;SDS011;76868;50.218;14.322;2024-03-25T02:42:40;37.67;;;11.38;;
80746;SDS011;76868;50.218;14.322;2024-03-25T02:45:06;24.23;;;9.15;;
80746;SDS011;76868;50.218;14.322;2024-03-25T02:47:32;15.07;;;5.45;;
80746;SDS011;76868;50.218;14.322;2024-03-25T02:49:57;17.48;;;6.75;;
80746;SDS011;76868;50.218;14.322;2024-03-25T02:52:23;41.40;;;13.88;;
80746;SDS011;76868;50.218;14.322;2024-03-25T02:54:49;22.30;;;7.90;;
80746;SDS011;76868;50.218;14.322;2024-03-25T02:57:14;8.10;;;3.05;;
80746;SDS011;76868;50.218;14.322;2024-03-25T02:59:39;26.50;;;8.50;;
80746;SDS011;76868;50.218;14.322;2024-03-25T03:02:05;35.55;;;11.77;;
80746;SDS011;76868;50.218;14.322;2024-03-25T03:04:30;20.92;;;6.93;;
80746;SDS011;76868;50.218;14.322;2024-03-25T03:06:56;12.63;;;4.18;;
80746;SDS011;76868;50.218;14.322;2024-03-25T03:09:22;7.10;;;3.47;;
80746;SDS011;76868;50.218;14.322;2024-03-25T03:11:47;7.88;;;2.92;;
80746;SDS011;76868;50.218;14.322;2024-03-25T03:14:12;14.23;;;5.13;;
80746;SDS011;76868;50.218;14.322;2024-03-25T03:16:38;13.82;;;5.03;;
80746;SDS011;76868;50.218;14.322;2024-03-25T03:19:03;17.42;;;6.47;;
80746;SDS011;76868;50.218;14.322;2024-03-25T03:21:29;27.27;;;8.77;;
80746;SDS011;76868;50.218;14.322;2024-03-25T03:23:55;18.58;;;5.95;;
80746;SDS011;76868;50.218;14.322;2024-03-25T03:26:20;4.85;;;2.13;;
80746;SDS011;76868;50.218;14.322;2024-03-25T03:28:46;31.30;;;10.10;;
80746;SDS011;76868;50.218;14.322;2024-03-25T03:31:11;9.20;;;3.40;;
80746;SDS011;76868;50.218;14.322;2024-03-25T03:33:36;22.92;;;8.52;;
80746;SDS011;76868;50.218;14.322;2024-03-25T03:36:02;21.23;;;8.30;;
80746;SDS011;76868;50.218;14.322;2024-03-25T03:38:27;12.98;;;4.68;;
80746;SDS011;76868;50.218;14.322;2024-03-25T03:40:59;12.02;;;3.83;;
80746;SDS011;76868;50.218;14.322;2024-03-25T03:43:26;11.80;;;3.78;;
80746;SDS011;76868;50.218;14.322;2024-03-25T03:45:52;8.40;;;3.90;;
80746;SDS011;76868;50.218;14.322;2024-03-25T03:48:17;22.85;;;7.72;;
80746;SDS011;76868;50.218;14.322;2024-03-25T03:50:43;14.40;;;6.00;;
80746;SDS011;76868;50.218;14.322;2024-03-25T03:53:08;12.93;;;4.38;;
80746;SDS011;76868;50.218;14.322;2024-03-25T03:55:34;5.97;;;2.13;;
80746;SDS011;76868;50.218;14.322;2024-03-25T03:57:59;5.43;;;1.95;;
80746;SDS011;76868;50.218;14.322;2024-03-25T04:00:24;10.48;;;3.35;;
80746;SDS011;76868;50.218;14.322;2024-03-25T04:02:50;27.67;;;7.30;;
80746;SDS011;76868;50.218;14.322;2024-03-25T04:05:15;30.73;;;9.32;;
80746;SDS011;76868;50.218;14.322;2024-03-25T04:07:41;32.85;;;11.77;;
80746;SDS011;76868;50.218;14.322;2024-03-25T04:10:07;12.60;;;5.60;;
80746;SDS011;76868;50.218;14.322;2024-03-25T04:12:33;20.45;;;9.63;;
80746;SDS011;76868;50.218;14.322;2024-03-25T04:14:58;7.15;;;3.20;;
80746;SDS011;76868;50.218;14.322;2024-03-25T04:17:23;5.38;;;2.40;;
80746;SDS011;76868;50.218;14.322;2024-03-25T04:19:49;5.15;;;2.72;;
80746;SDS011;76868;50.218;14.322;2024-03-25T04:24:42;3.28;;;1.90;;
80746;SDS011;76868;50.218;14.322;2024-03-25T04:27:10;2.63;;;1.42;;
80746;SDS011;76868;50.218;14.322;2024-03-25T04:29:35;2.85;;;1.83;;
80746;SDS011;76868;50.218;14.322;2024-03-25T04:32:01;3.42;;;2.22;;
80746;SDS011;76868;50.218;14.322;2024-03-25T04:34:27;5.65;;;3.08;;
80746;SDS011;76868;50.218;14.322;2024-03-25T04:36:52;5.75;;;3.03;;
80746;SDS011;76868;50.218;14.322;2024-03-25T04:39:18;8.02;;;3.72;;
80746;SDS011;76868;50.218;14.322;2024-03-25T04:41:44;3.30;;;2.05;;
80746;SDS011;76868;50.218;14.322;2024-03-25T04:44:09;2.78;;;1.10;;
80746;SDS011;76868;50.218;14.322;2024-03-25T04:46:34;2.03;;;1.27;;
80746;SDS011;76868;50.218;14.322;2024-03-25T04:49:00;1.33;;;1.10;;
80746;SDS011;76868;50.218;14.322;2024-03-25T04:51:25;2.95;;;1.10;;
80746;SDS011;76868;50.218;14.322;2024-03-25T04:53:51;2.42;;;1.25;;
80746;SDS011;76868;50.218;14.322;2024-03-25T04:56:18;1.40;;;0.90;;
80746;SDS011;76868;50.218;14.322;2024-03-25T04:58:43;2.42;;;1.10;;
80746;SDS011;76868;50.218;14.322;2024-03-25T05:01:08;3.15;;;1.20;;
80746;SDS011;76868;50.218;14.322;2024-03-25T05:03:34;1.50;;;1.17;;
80746;SDS011;76868;50.218;14.322;2024-03-25T05:05:59;1.60;;;0.90;;
80746;SDS011;76868;50.218;14.322;2024-03-25T05:08:24;0.75;;;0.63;;
80746;SDS011;76868;50.218;14.322;2024-03-25T05:10:50;2.25;;;0.98;;
80746;SDS011;76868;50.218;14.322;2024-03-25T05:13:15;2.85;;;0.95;;
80746;SDS011;76868;50.218;14.322;2024-03-25T05:15:40;2.67;;;0.90;;
80746;SDS011;76868;50.218;14.322;2024-03-25T05:18:06;1.40;;;0.88;;
80746;SDS011;76868;50.218;14.322;2024-03-25T05:20:31;3.53;;;1.27;;
80746;SDS011;76868;50.218;14.322;2024-03-25T05:22:57;1.35;;;0.82;;
80746;SDS011;76868;50.218;14.322;2024-03-25T05:25:23;2.25;;;1.40;;
80746;SDS011;76868;50.218;14.322;2024-03-25T05:27:53;2.25;;;1.33;;
80746;SDS011;76868;50.218;14.322;2024-03-25T05:30:19;2.13;;;1.30;;
80746;SDS011;76868;50.218;14.322;2024-03-25T05:32:44;1.67;;;1.10;;
80746;SDS011;76868;50.218;14.322;2024-03-25T05:35:09;4.13;;;1.50;;
80746;SDS011;76868;50.218;14.322;2024-03-25T05:37:35;2.30;;;1.20;;
80746;SDS011;76868;50.218;14.322;2024-03-25T05:40:01;2.53;;;1.60;;
80746;SDS011;76868;50.218;14.322;2024-03-25T05:42:26;3.28;;;1.45;;
80746;SDS011;76868;50.218;14.322;2024-03-25T05:44:52;2.40;;;1.50;;
80746;SDS011;76868;50.218;14.322;2024-03-25T05:47:17;2.90;;;1.70;;
80746;SDS011;76868;50.218;14.322;2024-03-25T05:49:42;2.55;;;1.75;;
80746;SDS011;76868;50.218;14.322;2024-03-25T05:52:07;2.10;;;1.20;;
80746;SDS011;76868;50.218;14.322;2024-03-25T05:54:33;4.90;;;1.30;;
80746;SDS011;76868;50.218;14.322;2024-03-25T05:56:58;1.60;;;1.20;;
80746;SDS011;76868;50.218;14.322;2024-03-25T05:59:23;3.00;;;1.20;;
80746;SDS011;76868;50.218;14.322;2024-03-25T06:01:49;2.55;;;1.17;;
80746;SDS011;76868;50.218;14.322;2024-03-25T06:04:14;2.33;;;1.30;;
80746;SDS011;76868;50.218;14.322;2024-03-25T06:06:39;1.55;;;1.13;;
80746;SDS011;76868;50.218;14.322;2024-03-25T06:09:05;4.13;;;1.67;;
80746;SDS011;76868;50.218;14.322;2024-03-25T06:11:30;2.85;;;1.23;;
80746;SDS011;76868;50.218;14.322;2024-03-25T06:13:56;1.70;;;1.00;;
80746;SDS011;76868;50.218;14.322;2024-03-25T06:16:21;4.05;;;1.20;;
80746;SDS011;76868;50.218;14.322;2024-03-25T06:18:46;2.08;;;1.25;;
80746;SDS011;76868;50.218;14.322;2024-03-25T06:21:12;1.65;;;1.08;;
80746;SDS011;76868;50.218;14.322;2024-03-25T06:23:38;4.75;;;1.20;;
80746;SDS011;76868;50.218;14.322;2024-03-25T06:26:03;1.35;;;0.95;;
80746;SDS011;76868;50.218;14.322;2024-03-25T06:28:29;1.95;;;1.00;;
80746;SDS011;76868;50.218;14.322;2024-03-25T06:30:54;2.95;;;1.58;;
80746;SDS011;76868;50.218;14.322;2024-03-25T06:33:38;3.67;;;1.88;;
80746;SDS011;76868;50.218;14.322;2024-03-25T06:36:32;5.88;;;2.55;;
80746;SDS011;76868;50.218;14.322;2024-03-25T06:39:00;5.97;;;2.55;;
80746;SDS011;76868;50.218;14.322;2024-03-25T06:41:25;7.85;;;3.28;;
80746;SDS011;76868;50.218;14.322;2024-03-25T06:43:50;3.33;;;1.33;;
80746;SDS011;76868;50.218;14.322;2024-03-25T06:46:16;5.95;;;2.67;;
80746;SDS011;76868;50.218;14.322;2024-03-25T06:48:41;11.15;;;4.97;;
80746;SDS011;76868;50.218;14.322;2024-03-25T06:51:06;21.67;;;8.13;;
80746;SDS011;76868;50.218;14.322;2024-03-25T06:53:32;14.13;;;4.65;;
80746;SDS011;76868;50.218;14.322;2024-03-25T06:55:58;6.47;;;2.75;;
80746;SDS011;76868;50.218;14.322;2024-03-25T06:58:25;11.45;;;4.78;;
80746;SDS011;76868;50.218;14.322;2024-03-25T07:00:51;19.83;;;6.97;;
80746;SDS011;76868;50.218;14.322;2024-03-25T07:03:18;11.50;;;4.22;;
80746;SDS011;76868;50.218;14.322;2024-03-25T07:05:45;22.40;;;8.38;;
80746;SDS011;76868;50.218;14.322;2024-03-25T07:08:14;9.35;;;4.00;;
80746;SDS011;76868;50.218;14.322;2024-03-25T07:10:43;9.65;;;3.58;;
80746;SDS011;76868;50.218;14.322;2024-03-25T07:13:09;19.35;;;7.43;;
80746;SDS011;76868;50.218;14.322;2024-03-25T07:15:34;7.47;;;2.33;;
80746;SDS011;76868;50.218;14.322;2024-03-25T07:18:00;8.02;;;4.20;;
80746;SDS011;76868;50.218;14.322;2024-03-25T07:20:25;14.60;;;6.18;;
80746;SDS011;76868;50.218;14.322;2024-03-25T07:22:51;7.70;;;3.15;;
80746;SDS011;76868;50.218;14.322;2024-03-25T07:25:17;8.98;;;3.67;;
80746;SDS011;76868;50.218;14.322;2024-03-25T07:27:42;12.70;;;5.60;;
80746;SDS011;76868;50.218;14.322;2024-03-25T07:30:08;6.20;;;2.63;;
80746;SDS011;76868;50.218;14.322;2024-03-25T07:32:34;5.63;;;3.08;;
80746;SDS011;76868;50.218;14.322;2024-03-25T07:34:59;6.18;;;2.75;;
80746;SDS011;76868;50.218;14.322;2024-03-25T07:37:25;4.13;;;1.95;;
80746;SDS011;76868;50.218;14.322;2024-03-25T07:39:50;2.38;;;1.67;;
80746;SDS011;76868;50.218;14.322;2024-03-25T07:42:16;7.28;;;3.22;;
80746;SDS011;76868;50.218;14.322;2024-03-25T07:44:41;9.52;;;4.68;;
80746;SDS011;76868;50.218;14.322;2024-03-25T07:47:07;16.05;;;6.55;;
80746;SDS011;76868;50.218;14.322;2024-03-25T07:49:33;21.42;;;12.77;;
80746;SDS011;76868;50.218;14.322;2024-03-25T07:51:59;9.57;;;7.00;;
80746;SDS011;76868;50.218;14.322;2024-03-25T07:54:25;31.40;;;14.57;;
80746;SDS011;76868;50.218;14.322;2024-03-25T07:56:51;48.25;;;20.35;;
80746;SDS011;76868;50.218;14.322;2024-03-25T07:59:17;19.50;;;7.90;;
80746;SDS011;76868;50.218;14.322;2024-03-25T08:01:43;2.88;;;1.65;;
80746;SDS011;76868;50.218;14.322;2024-03-25T08:04:08;10.27;;;6.10;;
80746;SDS011;76868;50.218;14.322;2024-03-25T08:06:34;29.00;;;17.90;;
80746;SDS011;76868;50.218;14.322;2024-03-25T08:08:59;50.17;;;24.27;;
80746;SDS011;76868;50.218;14.322;2024-03-25T08:11:24;31.00;;;15.70;;
80746;SDS011;76868;50.218;14.322;2024-03-25T08:13:50;42.50;;;23.17;;
80746;SDS011;76868;50.218;14.322;2024-03-25T08:16:15;4.60;;;3.78;;
80746;SDS011;76868;50.218;14.322;2024-03-25T08:18:40;3.65;;;1.90;;
80746;SDS011;76868;50.218;14.322;2024-03-25T08:21:06;4.40;;;2.67;;
80746;SDS011;76868;50.218;14.322;2024-03-25T08:23:31;6.32;;;3.85;;
80746;SDS011;76868;50.218;14.322;2024-03-25T08:25:57;4.68;;;2.95;;
80746;SDS011;76868;50.218;14.322;2024-03-25T08:28:22;7.95;;;5.82;;
80746;SDS011;76868;50.218;14.322;2024-03-25T08:30:47;3.47;;;2.28;;
80746;SDS011;76868;50.218;14.322;2024-03-25T08:33:13;7.22;;;5.32;;
80746;SDS011;76868;50.218;14.322;2024-03-25T08:35:38;7.90;;;5.85;;
80746;SDS011;76868;50.218;14.322;2024-03-25T08:38:03;15.07;;;10.68;;
80746;SDS011;76868;50.218;14.322;2024-03-25T08:40:29;8.43;;;6.68;;
80746;SDS011;76868;50.218;14.322;2024-03-25T08:42:54;5.90;;;4.00;;
80746;SDS011;76868;50.218;14.322;2024-03-25T08:45:20;6.65;;;6.00;;
80746;SDS011;76868;50.218;14.322;2024-03-25T08:47:45;5.07;;;4.13;;
80746;SDS011;76868;50.218;14.322;2024-03-25T08:50:10;6.03;;;4.93;;
80746;SDS011;76868;50.218;14.322;2024-03-25T08:52:35;2.40;;;1.50;;
80746;SDS011;76868;50.218;14.322;2024-03-25T08:55:01;6.60;;;3.88;;
80746;SDS011;76868;50.218;14.322;2024-03-25T08:57:27;4.25;;;2.53;;
80746;SDS011;76868;50.218;14.322;2024-03-25T08:59:52;12.02;;;8.95;;
80746;SDS011;76868;50.218;14.322;2024-03-25T09:02:18;12.60;;;9.70;;
80746;SDS011;76868;50.218;14.322;2024-03-25T09:04:43;6.03;;;4.00;;
80746;SDS011;76868;50.218;14.322;2024-03-25T09:07:09;4.55;;;3.30;;
80746;SDS011;76868;50.218;14.322;2024-03-25T09:09:34;9.45;;;5.82;;
80746;SDS011;76868;50.218;14.322;2024-03-25T09:12:18;13.52;;;6.88;;
80746;SDS011;76868;50.218;14.322;2024-03-25T09:14:43;9.35;;;5.20;;
80746;SDS011;76868;50.218;14.322;2024-03-25T09:17:08;9.88;;;5.03;;
80746;SDS011;76868;50.218;14.322;2024-03-25T09:19:34;18.10;;;8.02;;
80746;SDS011;76868;50.218;14.322;2024-03-25T09:21:59;6.57;;;3.88;;
80746;SDS011;76868;50.218;14.322;2024-03-25T09:24:24;10.13;;;4.72;;
80746;SDS011;76868;50.218;14.322;2024-03-25T09:26:50;9.60;;;6.22;;
80746;SDS011;76868;50.218;14.322;2024-03-25T09:29:15;12.30;;;5.97;;
80746;SDS011;76868;50.218;14.322;2024-03-25T09:31:44;4.38;;;1.40;;
80746;SDS011;76868;50.218;14.322;2024-03-25T09:34:09;3.58;;;1.10;;
80746;SDS011;76868;50.218;14.322;2024-03-25T09:36:35;13.27;;;7.38;;
80746;SDS011;76868;50.218;14.322;2024-03-25T09:39:00;15.05;;;8.90;;
80746;SDS011;76868;50.218;14.322;2024-03-25T09:41:26;6.78;;;5.85;;
80746;SDS011;76868;50.218;14.322;2024-03-25T09:43:58;9.90;;;3.63;;
80746;SDS011;76868;50.218;14.322;2024-03-25T09:46:25;7.93;;;3.25;;
80746;SDS011;76868;50.218;14.322;2024-03-25T09:48:52;7.90;;;3.95;;
80746;SDS011;76868;50.218;14.322;2024-03-25T09:51:19;7.43;;;3.78;;
80746;SDS011;76868;50.218;14.322;2024-03-25T09:53:45;8.02;;;4.28;;
80746;SDS011;76868;50.218;14.322;2024-03-25T09:56:11;4.70;;;1.70;;
80746;SDS011;76868;50.218;14.322;2024-03-25T09:58:38;29.25;;;8.20;;
80746;SDS011;76868;50.218;14.322;2024-03-25T10:03:30;14.20;;;6.32;;
80746;SDS011;76868;50.218;14.322;2024-03-25T10:05:55;6.55;;;4.38;;
80746;SDS011;76868;50.218;14.322;2024-03-25T10:08:21;6.97;;;3.78;;
80746;SDS011;76868;50.218;14.322;2024-03-25T10:10:47;10.88;;;4.40;;
80746;SDS011;76868;50.218;14.322;2024-03-25T10:13:13;8.10;;;4.68;;
80746;SDS011;76868;50.218;14.322;2024-03-25T10:15:38;8.35;;;3.38;;
80746;SDS011;76868;50.218;14.322;2024-03-25T10:18:07;2.72;;;1.73;;
80746;SDS011;76868;50.218;14.322;2024-03-25T10:20:33;3.53;;;1.90;;
80746;SDS011;76868;50.218;14.322;2024-03-25T10:23:01;11.80;;;5.75;;
80746;SDS011;76868;50.218;14.322;2024-03-25T10:25:30;9.18;;;4.55;;
80746;SDS011;76868;50.218;14.322;2024-03-25T10:27:59;24.35;;;10.18;;
80746;SDS011;76868;50.218;14.322;2024-03-25T10:30:26;9.20;;;5.45;;
80746;SDS011;76868;50.218;14.322;2024-03-25T10:33:02;9.80;;;5.65;;
80746;SDS011;76868;50.218;14.322;2024-03-25T10:35:29;9.23;;;4.72;;
80746;SDS011;76868;50.218;14.322;2024-03-25T10:38:03;7.85;;;5.32;;
80746;SDS011;76868;50.218;14.322;2024-03-25T10:40:30;7.53;;;5.65;;
80746;SDS011;76868;50.218;14.322;2024-03-25T10:43:01;9.80;;;7.78;;
80746;SDS011;76868;50.218;14.322;2024-03-25T10:45:30;4.50;;;2.10;;
80746;SDS011;76868;50.218;14.322;2024-03-25T10:48:00;18.42;;;7.60;;
80746;SDS011;76868;50.218;14.322;2024-03-25T10:50:29;12.43;;;6.43;;
80746;SDS011;76868;50.218;14.322;2024-03-25T10:55:22;8.63;;;6.93;;
80746;SDS011;76868;50.218;14.322;2024-03-25T10:57:48;8.93;;;4.30;;
80746;SDS011;76868;50.218;14.322;2024-03-25T11:00:14;6.75;;;4.28;;
80746;SDS011;76868;50.218;14.322;2024-03-25T11:02:44;5.95;;;4.13;;
80746;SDS011;76868;50.218;14.322;2024-03-25T11:05:10;11.55;;;7.65;;
80746;SDS011;76868;50.218;14.322;2024-03-25T11:07:37;4.63;;;3.25;;
80746;SDS011;76868;50.218;14.322;2024-03-25T11:10:05;13.90;;;12.07;;
80746;SDS011;76868;50.218;14.322;2024-03-25T11:12:35;37.60;;;23.60;;
80746;SDS011;76868;50.218;14.322;2024-03-25T11:15:03;8.60;;;5.00;;
80746;SDS011;76868;50.218;14.322;2024-03-25T11:17:30;26.30;;;15.05;;
80746;SDS011;76868;50.218;14.322;2024-03-25T11:20:06;5.20;;;3.47;;
80746;SDS011;76868;50.218;14.322;2024-03-25T11:22:33;7.25;;;3.67;;
80746;SDS011;76868;50.218;14.322;2024-03-25T11:25:04;18.33;;;14.90;;
80746;SDS011;76868;50.218;14.322;2024-03-25T11:27:36;6.28;;;4.32;;
80746;SDS011;76868;50.218;14.322;2024-03-25T11:30:02;4.57;;;3.10;;
80746;SDS011;76868;50.218;14.322;2024-03-25T11:32:43;6.47;;;4.40;;
80746;SDS011;76868;50.218;14.322;2024-03-25T11:35:09;12.57;;;9.57;;
80746;SDS011;76868;50.218;14.322;2024-03-25T11:37:41;20.88;;;16.85;;
80746;SDS011;76868;50.218;14.322;2024-03-25T11:40:11;4.40;;;3.25;;
80746;SDS011;76868;50.218;14.322;2024-03-25T11:42:39;5.43;;;3.20;;
80746;SDS011;76868;50.218;14.322;2024-03-25T11:45:18;4.22;;;3.10;;
80746;SDS011;76868;50.218;14.322;2024-03-25T11:47:45;5.63;;;4.07;;
80746;SDS011;76868;50.218;14.322;2024-03-25T11:50:15;7.88;;;4.90;;
80746;SDS011;76868;50.218;14.322;2024-03-25T11:52:42;26.55;;;13.23;;
80746;SDS011;76868;50.218;14.322;2024-03-25T11:55:08;12.32;;;6.63;;
80746;SDS011;76868;50.218;14.322;2024-03-25T12:00:00;7.03;;;4.05;;
80746;SDS011;76868;50.218;14.322;2024-03-25T12:02:30;6.22;;;3.85;;
80746;SDS011;76868;50.218;14.322;2024-03-25T12:04:56;6.22;;;2.47;;
80746;SDS011;76868;50.218;14.322;2024-03-25T12:07:21;5.35;;;2.97;;
80746;SDS011;76868;50.218;14.322;2024-03-25T12:09:47;4.28;;;2.03;;
80746;SDS011;76868;50.218;14.322;2024-03-25T12:12:48;4.00;;;2.15;;
80746;SDS011;76868;50.218;14.322;2024-03-25T12:15:15;4.45;;;2.30;;
80746;SDS011;76868;50.218;14.322;2024-03-25T12:17:41;3.35;;;2.33;;
80746;SDS011;76868;50.218;14.322;2024-03-25T12:20:08;3.13;;;2.42;;
80746;SDS011;76868;50.218;14.322;2024-03-25T12:22:34;8.50;;;4.57;;
80746;SDS011;76868;50.218;14.322;2024-03-25T12:25:02;6.68;;;4.03;;
80746;SDS011;76868;50.218;14.322;2024-03-25T12:27:31;4.30;;;1.92;;
80746;SDS011;76868;50.218;14.322;2024-03-25T12:30:06;5.75;;;2.58;;
80746;SDS011;76868;50.218;14.322;2024-03-25T12:32:36;4.30;;;2.15;;
80746;SDS011;76868;50.218;14.322;2024-03-25T12:35:05;3.40;;;2.13;;
80746;SDS011;76868;50.218;14.322;2024-03-25T12:37:41;3.20;;;1.73;;
80746;SDS011;76868;50.218;14.322;2024-03-25T12:40:27;3.75;;;2.20;;
80746;SDS011;76868;50.218;14.322;2024-03-25T12:42:55;3.90;;;1.75;;
80746;SDS011;76868;50.218;14.322;2024-03-25T12:45:24;3.15;;;1.63;;
80746;SDS011;76868;50.218;14.322;2024-03-25T12:47:50;4.32;;;2.20;;
80746;SDS011;76868;50.218;14.322;2024-03-25T12:50:16;2.83;;;1.42;;
80746;SDS011;76868;50.218;14.322;2024-03-25T12:52:41;4.95;;;1.77;;
80746;SDS011;76868;50.218;14.322;2024-03-25T12:55:07;3.17;;;1.58;;
80746;SDS011;76868;50.218;14.322;2024-03-25T12:57:32;2.85;;;1.33;;
80746;SDS011;76868;50.218;14.322;2024-03-25T12:59:58;3.00;;;1.65;;
80746;SDS011;76868;50.218;14.322;2024-03-25T13:02:24;2.95;;;1.23;;
80746;SDS011;76868;50.218;14.322;2024-03-25T13:04:49;2.80;;;1.75;;
80746;SDS011;76868;50.218;14.322;2024-03-25T13:07:15;3.13;;;1.60;;
80746;SDS011;76868;50.218;14.322;2024-03-25T13:09:41;8.40;;;4.30;;
80746;SDS011;76868;50.218;14.322;2024-03-25T13:12:06;6.63;;;2.67;;
80746;SDS011;76868;50.218;14.322;2024-03-25T13:14:32;2.92;;;1.77;;
80746;SDS011;76868;50.218;14.322;2024-03-25T13:16:58;4.53;;;2.22;;
80746;SDS011;76868;50.218;14.322;2024-03-25T13:19:23;8.02;;;4.10;;
80746;SDS011;76868;50.218;14.322;2024-03-25T13:21:48;4.35;;;2.50;;
80746;SDS011;76868;50.218;14.322;2024-03-25T13:24:14;3.58;;;1.63;;
80746;SDS011;76868;50.218;14.322;2024-03-25T13:26:39;5.18;;;2.13;;
80746;SDS011;76868;50.218;14.322;2024-03-25T13:29:05;5.00;;;1.98;;
80746;SDS011;76868;50.218;14.322;2024-03-25T13:31:32;4.05;;;1.70;;
80746;SDS011;76868;50.218;14.322;2024-03-25T13:33:58;3.25;;;2.03;;
80746;SDS011;76868;50.218;14.322;2024-03-25T13:36:23;3.17;;;1.88;;
80746;SDS011;76868;50.218;14.322;2024-03-25T13:38:48;2.50;;;1.65;;
80746;SDS011;76868;50.218;14.322;2024-03-25T13:41:14;3.67;;;1.63;;
80746;SDS011;76868;50.218;14.322;2024-03-25T13:43:42;2.50;;;1.40;;
80746;SDS011;76868;50.218;14.322;2024-03-25T13:46:08;5.20;;;1.60;;
80746;SDS011;76868;50.218;14.322;2024-03-25T13:48:34;3.25;;;1.85;;
80746;SDS011;76868;50.218;14.322;2024-03-25T13:50:59;2.55;;;1.80;;
80746;SDS011;76868;50.218;14.322;2024-03-25T13:53:24;2.17;;;1.48;;
80746;SDS011;76868;50.218;14.322;2024-03-25T13:55:50;3.08;;;1.55;;
80746;SDS011;76868;50.218;14.322;2024-03-25T13:58:15;2.50;;;1.45;;
80746;SDS011;76868;50.218;14.322;2024-03-25T14:00:41;2.45;;;1.55;;
80746;SDS011;76868;50.218;14.322;2024-03-25T14:03:06;3.13;;;1.58;;
80746;SDS011;76868;50.218;14.322;2024-03-25T14:05:32;2.40;;;1.50;;
80746;SDS011;76868;50.218;14.322;2024-03-25T14:07:58;4.10;;;1.15;;
80746;SDS011;76868;50.218;14.322;2024-03-25T14:10:23;2.25;;;1.40;;
80746;SDS011;76868;50.218;14.322;2024-03-25T14:12:49;4.22;;;1.30;;
80746;SDS011;76868;50.218;14.322;2024-03-25T14:15:14;4.38;;;1.52;;
80746;SDS011;76868;50.218;14.322;2024-03-25T14:17:40;35.20;;;12.48;;
80746;SDS011;76868;50.218;14.322;2024-03-25T14:20:06;2.95;;;1.33;;
80746;SDS011;76868;50.218;14.322;2024-03-25T14:22:33;2.47;;;1.33;;
80746;SDS011;76868;50.218;14.322;2024-03-25T14:24:59;1.48;;;1.00;;
80746;SDS011;76868;50.218;14.322;2024-03-25T14:27:24;3.08;;;1.02;;
80746;SDS011;76868;50.218;14.322;2024-03-25T14:29:50;3.35;;;1.38;;
80746;SDS011;76868;50.218;14.322;2024-03-25T14:32:19;2.13;;;1.17;;
80746;SDS011;76868;50.218;14.322;2024-03-25T14:34:46;27.25;;;14.63;;
80746;SDS011;76868;50.218;14.322;2024-03-25T14:37:12;2.88;;;1.33;;